createdAt,value
2022-09-16T08:42:11.627Z,76.72
2022-09-16T08:42:24.755Z,77.02
2022-09-16T08:42:31.819Z,77.02
2022-09-16T08:42:41.780Z,76.92
2022-09-16T08:42:51.878Z,76.72
2022-09-16T08:43:01.958Z,76.51
2022-09-16T08:43:12.880Z,76.41
2022-09-16T08:43:22.387Z,76.31
2022-09-16T08:43:32.337Z,76.21
2022-09-16T08:43:42.477Z,76.21
2022-09-16T08:43:52.605Z,76.21
2022-09-16T08:44:02.598Z,76.21
2022-09-16T08:44:12.596Z,76.10
2022-09-16T08:44:22.686Z,76.01
2022-09-16T08:44:32.704Z,75.90
2022-09-16T08:44:42.811Z,75.80
2022-09-16T08:44:52.907Z,75.80
2022-09-16T08:45:03.006Z,75.70
2022-09-16T08:45:13.114Z,75.70
2022-09-16T08:45:23.280Z,75.70
2022-09-16T08:45:33.434Z,75.70
2022-09-16T08:45:43.553Z,75.70
2022-09-16T08:45:55.545Z,75.80
2022-09-16T08:46:05.527Z,75.80
2022-09-16T08:46:15.621Z,75.80
2022-09-16T08:46:25.566Z,75.80
2022-09-16T08:46:35.669Z,75.80
2022-09-16T08:46:45.746Z,75.80
2022-09-16T08:46:55.829Z,75.80
2022-09-16T08:47:05.918Z,75.80
2022-09-16T08:47:16.016Z,75.80
2022-09-16T08:47:26.092Z,75.80
2022-09-16T08:47:36.242Z,75.80
2022-09-16T08:47:46.289Z,75.80
2022-09-16T08:47:56.379Z,75.80
2022-09-16T08:48:06.465Z,75.90
2022-09-16T08:48:16.594Z,75.90
2022-09-16T08:48:28.666Z,75.90
2022-09-16T08:48:36.756Z,76.01
2022-09-16T08:48:46.826Z,75.80
2022-09-16T08:48:57.032Z,75.49
2022-09-16T08:49:07.004Z,75.26
2022-09-16T08:49:17.108Z,75.09
2022-09-16T08:49:27.185Z,74.95
2022-09-16T08:49:38.260Z,75.05
2022-09-16T08:49:47.396Z,75.05
2022-09-16T08:49:57.475Z,75.05
2022-09-16T08:50:07.556Z,75.05
2022-09-16T08:50:17.650Z,74.85
2022-09-16T08:50:27.736Z,74.75
2022-09-16T08:50:37.804Z,74.55
2022-09-16T08:50:47.885Z,74.44
2022-09-16T08:50:57.956Z,74.24
2022-09-16T08:51:08.056Z,73.94
2022-09-16T08:51:18.196Z,73.83
2022-09-16T08:51:28.165Z,73.53
2022-09-16T08:51:38.256Z,73.33
2022-09-16T08:51:48.336Z,73.33
2022-09-16T08:51:58.494Z,73.43
2022-09-16T08:52:08.595Z,73.53
2022-09-16T08:52:18.694Z,73.53
2022-09-16T08:52:28.777Z,73.53
2022-09-16T08:52:38.894Z,73.53
2022-09-16T08:52:48.963Z,73.63
2022-09-16T08:52:59.047Z,73.63
2022-09-16T08:53:09.152Z,73.74
2022-09-16T08:53:19.236Z,73.74
2022-09-16T08:53:29.314Z,73.83
2022-09-16T08:53:39.456Z,73.83
2022-09-16T08:53:49.535Z,73.94
2022-09-16T08:53:59.638Z,73.94
2022-09-16T08:54:09.735Z,73.94
2022-09-16T08:54:19.846Z,73.94
2022-09-16T08:54:29.935Z,74.04
2022-09-16T08:54:40.004Z,74.14
2022-09-16T08:54:50.076Z,74.34
2022-09-16T08:55:00.146Z,74.44
2022-09-16T08:55:10.225Z,74.55
2022-09-16T08:55:20.335Z,74.55
2022-09-16T08:55:30.415Z,74.55
2022-09-16T08:55:40.496Z,74.41
2022-09-16T08:55:50.594Z,74.41
2022-09-16T08:56:00.673Z,74.41
2022-09-16T08:56:10.755Z,74.31
2022-09-16T08:56:20.887Z,74.31
2022-09-16T08:56:30.955Z,74.31
2022-09-16T08:56:44.194Z,74.31
2022-09-16T08:56:51.046Z,74.31
2022-09-16T08:57:01.146Z,74.31
2022-09-16T08:57:11.224Z,74.31
2022-09-16T08:57:21.295Z,74.31
2022-09-16T08:57:31.386Z,74.31
2022-09-16T08:57:41.496Z,74.21
2022-09-16T08:57:51.565Z,74.10
2022-09-16T08:58:01.647Z,73.90
2022-09-16T08:58:11.746Z,73.60
2022-09-16T08:58:21.828Z,73.19
2022-09-16T08:58:31.906Z,73.09
2022-09-16T08:58:42.004Z,73.19
2022-09-16T08:58:52.079Z,73.29
2022-09-16T08:59:02.166Z,73.29
2022-09-16T08:59:12.295Z,73.29
2022-09-16T08:59:22.384Z,73.29
2022-09-16T08:59:32.463Z,73.29
2022-09-16T08:59:42.543Z,73.39
2022-09-16T08:59:52.635Z,73.39
2022-09-16T09:00:02.737Z,73.39
2022-09-16T09:00:12.824Z,73.39
2022-09-16T09:00:22.906Z,73.50
2022-09-16T09:00:33.034Z,73.50
2022-09-16T09:00:43.159Z,73.50
2022-09-16T09:00:53.314Z,73.50
2022-09-16T09:01:03.455Z,73.50
2022-09-16T09:01:13.349Z,73.39
2022-09-16T09:01:23.597Z,73.29
2022-09-16T09:01:33.739Z,73.29
2022-09-16T09:01:44.099Z,73.29
2022-09-16T09:01:54.222Z,73.39
2022-09-16T09:02:08.282Z,73.29
2022-09-16T09:02:15.531Z,73.29
2022-09-16T09:02:25.429Z,73.19
2022-09-16T09:02:35.338Z,73.09
2022-09-16T09:02:45.255Z,72.99
2022-09-16T09:02:55.199Z,72.99
2022-09-16T09:03:05.274Z,72.99
2022-09-16T09:03:15.374Z,72.89
2022-09-16T09:03:25.457Z,72.78
2022-09-16T09:03:35.545Z,72.69
2022-09-16T09:03:45.707Z,72.69
2022-09-16T09:03:55.671Z,72.65
2022-09-16T09:04:05.745Z,72.58
2022-09-16T09:04:15.854Z,72.45
2022-09-16T09:04:25.995Z,72.38
2022-09-16T09:04:35.971Z,72.38
2022-09-16T09:04:46.055Z,72.28
2022-09-16T09:04:56.153Z,72.14
2022-09-16T09:05:06.234Z,72.04
2022-09-16T09:05:16.355Z,71.94
2022-09-16T09:05:26.469Z,71.94
2022-09-16T09:05:36.438Z,71.94
2022-09-16T09:05:46.514Z,71.84
2022-09-16T09:05:56.662Z,71.73
2022-09-16T09:06:06.723Z,71.64
2022-09-16T09:06:16.807Z,71.64
2022-09-16T09:06:26.865Z,71.64
2022-09-16T09:06:37.014Z,71.33
2022-09-16T09:06:47.085Z,71.23
2022-09-16T09:06:57.753Z,71.23
2022-09-16T09:07:07.306Z,71.23
2022-09-16T09:07:17.376Z,71.33
2022-09-16T09:07:27.528Z,71.33
2022-09-16T09:07:37.616Z,71.33
2022-09-16T09:07:47.695Z,71.33
2022-09-16T09:07:57.815Z,71.44
2022-09-16T09:08:07.895Z,71.44
2022-09-16T09:08:17.974Z,71.44
2022-09-16T09:08:28.074Z,71.33
2022-09-16T09:08:38.255Z,70.83
2022-09-16T09:08:48.336Z,70.42
2022-09-16T09:08:59.335Z,70.21
2022-09-16T09:09:09.422Z,70.11
2022-09-16T09:09:19.504Z,70.01
2022-09-16T09:09:29.636Z,70.01
2022-09-16T09:09:39.712Z,70.15
2022-09-16T09:09:49.867Z,70.21
2022-09-16T09:09:59.927Z,70.21
2022-09-16T09:10:10.840Z,70.32
2022-09-16T09:10:20.014Z,70.32
2022-09-16T09:10:30.136Z,70.32
2022-09-16T09:10:40.214Z,70.35
2022-09-16T09:10:50.304Z,70.35
2022-09-16T09:11:00.426Z,70.35
2022-09-16T09:11:10.530Z,70.35
2022-09-16T09:11:20.626Z,70.35
2022-09-16T09:11:31.286Z,70.42
2022-09-16T09:11:41.039Z,70.45
2022-09-16T09:11:51.147Z,70.45
2022-09-16T09:12:01.419Z,70.45
2022-09-16T09:12:12.015Z,70.55
2022-09-16T09:12:21.784Z,70.65
2022-09-16T09:12:32.645Z,70.45
2022-09-16T09:12:42.381Z,70.35
2022-09-16T09:12:52.751Z,70.15
2022-09-16T09:13:02.263Z,70.04
2022-09-16T09:13:12.485Z,70.04
2022-09-16T09:13:22.089Z,70.04
2022-09-16T09:13:31.768Z,70.15
2022-09-16T09:13:41.904Z,70.25
2022-09-16T09:13:52.154Z,70.35
2022-09-16T09:14:02.104Z,70.45
2022-09-16T09:14:12.183Z,70.55
2022-09-16T09:14:22.264Z,70.55
2022-09-16T09:14:32.314Z,70.45
2022-09-16T09:14:42.386Z,70.45
2022-09-16T09:14:52.412Z,70.45
2022-09-16T09:15:02.393Z,70.45
2022-09-16T09:15:12.477Z,70.45
2022-09-16T09:15:27.453Z,70.45
2022-09-16T09:15:33.521Z,70.45
2022-09-16T09:15:43.608Z,70.45
2022-09-16T09:15:53.704Z,70.45
2022-09-16T09:16:03.823Z,70.45
2022-09-16T09:16:13.938Z,70.35
2022-09-16T09:16:24.044Z,70.35
2022-09-16T09:16:34.212Z,70.45
2022-09-16T09:16:44.250Z,70.45
2022-09-16T09:16:54.296Z,70.45
2022-09-16T09:17:04.243Z,70.55
2022-09-16T09:17:14.362Z,70.45
2022-09-16T09:17:24.464Z,70.45
2022-09-16T09:17:37.223Z,70.55
2022-09-16T09:17:48.771Z,70.65
2022-09-16T09:17:55.488Z,70.65
2022-09-16T09:18:05.572Z,70.45
2022-09-16T09:18:16.266Z,70.04
2022-09-16T09:18:25.733Z,69.74
2022-09-16T09:18:35.814Z,69.74
2022-09-16T09:18:45.873Z,69.84
2022-09-16T09:18:55.944Z,69.84
2022-09-16T09:19:06.082Z,69.84
2022-09-16T09:19:16.153Z,69.84
2022-09-16T09:19:26.204Z,69.95
2022-09-16T09:19:36.274Z,69.95
2022-09-16T09:19:46.354Z,69.95
2022-09-16T09:19:56.424Z,69.95
2022-09-16T09:20:06.494Z,70.04
2022-09-16T09:20:16.554Z,70.04
2022-09-16T09:20:26.653Z,70.04
2022-09-16T09:20:36.742Z,70.15
2022-09-16T09:20:46.813Z,70.15
2022-09-16T09:20:56.893Z,70.15
2022-09-16T09:21:06.961Z,70.15
2022-09-16T09:21:17.028Z,70.15
2022-09-16T09:21:27.452Z,70.15
2022-09-16T09:21:37.093Z,70.25
2022-09-16T09:21:47.184Z,70.25
2022-09-16T09:21:57.164Z,70.25
2022-09-16T09:22:07.223Z,70.25
2022-09-16T09:22:17.302Z,70.35
2022-09-16T09:22:27.394Z,70.35
2022-09-16T09:22:37.481Z,70.35
2022-09-16T09:22:47.524Z,70.35
2022-09-16T09:22:57.594Z,70.35
2022-09-16T09:23:07.646Z,70.35
2022-09-16T09:23:17.712Z,70.45
2022-09-16T09:23:27.794Z,70.45
2022-09-16T09:23:38.813Z,70.45
2022-09-16T09:23:47.871Z,70.45
2022-09-16T09:23:57.994Z,70.25
2022-09-16T09:24:08.052Z,70.04
2022-09-16T09:24:18.173Z,70.04
2022-09-16T09:24:28.263Z,70.04
2022-09-16T09:24:38.334Z,70.04
2022-09-16T09:24:48.418Z,70.15
2022-09-16T09:24:58.522Z,70.25
2022-09-16T09:25:08.634Z,70.25
2022-09-16T09:25:18.697Z,70.25
2022-09-16T09:25:28.754Z,70.35
2022-09-16T09:25:38.814Z,70.35
2022-09-16T09:25:48.896Z,70.25
2022-09-16T09:25:58.954Z,70.25
2022-09-16T09:26:09.075Z,70.25
2022-09-16T09:26:19.142Z,70.35
2022-09-16T09:26:29.224Z,70.35
2022-09-16T09:26:39.291Z,70.35
2022-09-16T09:26:49.406Z,70.35
2022-09-16T09:26:59.471Z,70.35
2022-09-16T09:27:09.551Z,70.35
2022-09-16T09:27:19.692Z,70.35
2022-09-16T09:27:29.763Z,70.35
2022-09-16T09:27:39.838Z,70.32
2022-09-16T09:27:49.893Z,70.32
2022-09-16T09:28:00.006Z,70.01
2022-09-16T09:28:10.063Z,69.71
2022-09-16T09:28:20.124Z,69.51
2022-09-16T09:28:30.272Z,69.40
2022-09-16T09:28:40.366Z,69.30
2022-09-16T09:28:50.452Z,69.30
2022-09-16T09:29:00.574Z,69.30
2022-09-16T09:29:10.694Z,69.30
2022-09-16T09:29:20.780Z,69.30
2022-09-16T09:29:30.844Z,69.30
2022-09-16T09:29:40.961Z,69.40
2022-09-16T09:29:51.043Z,69.30
2022-09-16T09:30:01.140Z,69.30
2022-09-16T09:30:11.182Z,69.20
2022-09-16T09:30:21.305Z,69.20
2022-09-16T09:30:31.381Z,69.20
2022-09-16T09:30:41.457Z,69.00
2022-09-16T09:30:51.424Z,68.79
2022-09-16T09:31:01.523Z,68.59
2022-09-16T09:31:11.689Z,68.49
2022-09-16T09:31:21.644Z,68.39
2022-09-16T09:31:31.742Z,68.29
2022-09-16T09:31:41.876Z,68.19
2022-09-16T09:31:52.014Z,67.78
2022-09-16T09:32:02.110Z,67.38
2022-09-16T09:32:12.084Z,67.17
2022-09-16T09:32:22.186Z,67.07
2022-09-16T09:32:42.070Z,66.86
2022-09-16T09:32:49.486Z,66.77
2022-09-16T09:32:54.269Z,66.66
2022-09-16T09:33:04.313Z,66.66
2022-09-16T09:33:41.576Z,66.66
2022-09-16T09:33:44.762Z,66.56
2022-09-16T09:33:46.192Z,66.26
2022-09-16T09:33:47.469Z,66.05
2022-09-16T09:33:57.063Z,65.75
2022-09-16T09:34:07.164Z,65.75
2022-09-16T09:34:17.214Z,65.75
2022-09-16T09:34:27.244Z,65.85
2022-09-16T09:34:41.025Z,65.85
2022-09-16T09:34:47.974Z,65.85
2022-09-16T09:34:57.743Z,65.85
2022-09-16T09:35:07.834Z,65.95
2022-09-16T09:35:17.993Z,66.05
2022-09-16T09:35:27.964Z,66.05
2022-09-16T09:35:38.042Z,66.05
2022-09-16T09:35:48.183Z,66.05
2022-09-16T09:35:58.194Z,66.16
2022-09-16T09:36:08.328Z,66.05
2022-09-16T09:36:18.434Z,66.16
2022-09-16T09:36:28.523Z,66.16
2022-09-16T09:36:38.714Z,66.26
2022-09-16T09:36:48.630Z,66.26
2022-09-16T09:36:58.732Z,66.36
2022-09-16T09:37:08.728Z,66.46
2022-09-16T09:37:18.716Z,66.46
2022-09-16T09:37:28.812Z,66.36
2022-09-16T09:37:38.882Z,66.33
2022-09-16T09:37:48.974Z,66.36
2022-09-16T09:37:59.095Z,66.36
2022-09-16T09:38:09.183Z,66.43
2022-09-16T09:38:19.300Z,66.43
2022-09-16T09:38:29.391Z,66.43
2022-09-16T09:38:39.474Z,66.63
2022-09-16T09:38:49.598Z,66.74
2022-09-16T09:38:59.690Z,66.94
2022-09-16T09:39:09.803Z,67.14
2022-09-16T09:39:19.890Z,67.24
2022-09-16T09:39:29.983Z,67.38
2022-09-16T09:39:40.070Z,67.34
2022-09-16T09:39:50.176Z,67.44
2022-09-16T09:40:00.496Z,67.44
2022-09-16T09:40:10.302Z,67.55
2022-09-16T09:40:20.424Z,67.58
2022-09-16T09:40:30.545Z,67.68
2022-09-16T09:40:40.622Z,67.65
2022-09-16T09:40:50.742Z,67.65
2022-09-16T09:41:00.853Z,67.65
2022-09-16T09:41:10.937Z,67.68
2022-09-16T09:41:21.048Z,67.68
2022-09-16T09:41:31.122Z,67.68
2022-09-16T09:41:41.202Z,67.75
2022-09-16T09:41:51.321Z,67.65
2022-09-16T09:42:01.412Z,67.65
2022-09-16T09:42:11.542Z,67.58
2022-09-16T09:42:21.624Z,67.65
2022-09-16T09:42:31.754Z,67.65
2022-09-16T09:42:41.841Z,67.55
2022-09-16T09:42:51.983Z,67.44
2022-09-16T09:43:02.075Z,67.44
2022-09-16T09:43:12.153Z,67.44
2022-09-16T09:43:22.239Z,67.55
2022-09-16T09:43:32.382Z,67.55
2022-09-16T09:43:42.484Z,67.55
2022-09-16T09:43:52.553Z,67.55
2022-09-16T09:44:02.641Z,67.55
2022-09-16T09:44:12.782Z,67.55
2022-09-16T09:44:22.854Z,67.55
2022-09-16T09:44:32.966Z,67.44
2022-09-16T09:44:43.066Z,67.44
2022-09-16T09:44:55.240Z,67.44
2022-09-16T09:45:03.260Z,67.44
2022-09-16T09:45:13.362Z,67.44
2022-09-16T09:45:23.483Z,67.44
2022-09-16T09:45:33.582Z,67.44
2022-09-16T09:45:43.779Z,67.44
2022-09-16T09:45:53.805Z,67.44
2022-09-16T09:46:03.828Z,67.55
2022-09-16T09:46:13.820Z,67.55
2022-09-16T09:46:23.813Z,67.34
2022-09-16T09:46:33.838Z,67.14
2022-09-16T09:46:43.742Z,67.03
2022-09-16T09:46:53.841Z,67.03
2022-09-16T09:47:03.930Z,66.94
2022-09-16T09:47:14.011Z,66.94
2022-09-16T09:47:24.092Z,66.83
2022-09-16T09:47:34.180Z,66.83
2022-09-16T09:47:44.251Z,66.74
2022-09-16T09:47:55.281Z,66.74
2022-09-16T09:48:05.429Z,66.63
2022-09-16T09:48:15.501Z,66.63
2022-09-16T09:48:25.620Z,66.74
2022-09-16T09:48:35.716Z,66.74
2022-09-16T09:48:45.823Z,66.83
2022-09-16T09:48:55.891Z,66.83
2022-09-16T09:49:06.021Z,66.83
2022-09-16T09:49:16.112Z,66.83
2022-09-16T09:49:26.103Z,66.83
2022-09-16T09:49:36.879Z,66.83
2022-09-16T09:49:46.262Z,66.74
2022-09-16T09:49:56.352Z,66.63
2022-09-16T09:50:06.503Z,66.53
2022-09-16T09:50:16.620Z,66.53
2022-09-16T09:50:26.582Z,66.43
2022-09-16T09:50:36.701Z,66.33
2022-09-16T09:50:46.836Z,66.33
2022-09-16T09:50:56.773Z,66.23
2022-09-16T09:51:06.882Z,66.19
2022-09-16T09:51:17.011Z,65.69
2022-09-16T09:51:27.103Z,65.18
2022-09-16T09:51:37.202Z,64.58
2022-09-16T09:51:47.292Z,63.66
2022-09-16T09:51:57.402Z,63.35
2022-09-16T09:52:07.532Z,63.35
2022-09-16T09:52:17.610Z,63.46
2022-09-16T09:52:27.710Z,63.46
2022-09-16T09:52:37.906Z,63.46
2022-09-16T09:52:47.792Z,63.46
2022-09-16T09:52:57.882Z,63.46
2022-09-16T09:53:07.991Z,63.35
2022-09-16T09:53:18.120Z,63.26
2022-09-16T09:53:28.242Z,63.15
2022-09-16T09:53:38.351Z,62.95
2022-09-16T09:53:48.460Z,62.85
2022-09-16T09:53:58.551Z,62.75
2022-09-16T09:54:08.679Z,62.75
2022-09-16T09:54:18.822Z,62.85
2022-09-16T09:54:28.931Z,62.95
2022-09-16T09:54:38.883Z,63.06
2022-09-16T09:54:48.991Z,63.06
2022-09-16T09:54:59.081Z,63.06
2022-09-16T09:55:12.058Z,62.85
2022-09-16T09:55:20.102Z,62.34
2022-09-16T09:55:30.208Z,62.14
2022-09-16T09:55:40.310Z,62.14
2022-09-16T09:55:50.259Z,62.14
2022-09-16T09:56:00.342Z,62.14
2022-09-16T09:56:10.456Z,62.04
2022-09-16T09:56:20.534Z,62.04
2022-09-16T09:56:30.601Z,62.14
2022-09-16T09:56:40.714Z,62.14
2022-09-16T09:56:50.790Z,62.24
2022-09-16T09:57:00.881Z,62.34
2022-09-16T09:57:10.972Z,62.34
2022-09-16T09:57:21.094Z,62.45
2022-09-16T09:57:31.202Z,62.45
2022-09-16T09:57:41.299Z,62.34
2022-09-16T09:57:51.419Z,62.45
2022-09-16T09:58:01.491Z,62.54
2022-09-16T09:58:11.589Z,62.54
2022-09-16T09:58:21.700Z,62.65
2022-09-16T09:58:31.790Z,62.65
2022-09-16T09:58:41.946Z,62.65
2022-09-16T09:58:52.038Z,62.54
2022-09-16T09:59:02.178Z,62.45
2022-09-16T09:59:12.282Z,62.24
2022-09-16T09:59:22.411Z,62.24
2022-09-16T09:59:32.510Z,62.24
2022-09-16T09:59:42.641Z,62.24
2022-09-16T09:59:52.759Z,62.34
2022-09-16T10:00:02.879Z,62.45
2022-09-16T10:00:13.019Z,62.54
2022-09-16T10:00:23.102Z,62.65
2022-09-16T10:00:33.224Z,62.65
2022-09-16T10:00:43.422Z,62.75
2022-09-16T10:00:53.374Z,62.65
2022-09-16T10:01:03.354Z,62.24
2022-09-16T10:01:13.366Z,62.14
2022-09-16T10:01:23.381Z,62.14
2022-09-16T10:01:33.389Z,62.04
2022-09-16T10:01:43.478Z,62.04
2022-09-16T10:01:53.580Z,62.04
2022-09-16T10:02:03.772Z,61.94
2022-09-16T10:02:13.730Z,61.83
2022-09-16T10:02:23.744Z,61.74
2022-09-16T10:02:33.682Z,61.74
2022-09-16T10:02:48.880Z,61.74
2022-09-16T10:03:01.501Z,61.74
2022-09-16T10:03:06.110Z,61.83
2022-09-16T10:03:16.241Z,61.83
2022-09-16T10:03:26.342Z,61.74
2022-09-16T10:03:36.452Z,61.83
2022-09-16T10:03:46.545Z,61.83
2022-09-16T10:03:56.645Z,61.83
2022-09-16T10:04:06.730Z,61.94
2022-09-16T10:04:16.905Z,61.94
2022-09-16T10:04:26.862Z,61.91
2022-09-16T10:04:36.952Z,61.80
2022-09-16T10:04:47.032Z,61.80
2022-09-16T10:04:59.021Z,61.80
2022-09-16T10:05:09.151Z,61.80
2022-09-16T10:05:19.314Z,61.80
2022-09-16T10:05:29.221Z,61.80
2022-09-16T10:05:39.338Z,61.80
2022-09-16T10:05:49.421Z,61.60
2022-09-16T10:05:59.430Z,61.20
2022-09-16T10:06:09.560Z,61.10
2022-09-16T10:06:19.560Z,60.79
2022-09-16T10:06:29.638Z,60.39
2022-09-16T10:06:39.730Z,59.99
2022-09-16T10:06:49.855Z,59.99
2022-09-16T10:06:59.986Z,60.08
2022-09-16T10:07:09.990Z,60.19
2022-09-16T10:07:20.069Z,60.19
2022-09-16T10:07:30.191Z,60.19
2022-09-16T10:07:40.270Z,60.28
2022-09-16T10:07:50.349Z,60.39
2022-09-16T10:08:00.448Z,60.49
2022-09-16T10:08:13.016Z,60.59
2022-09-16T10:08:21.498Z,60.69
2022-09-16T10:08:31.609Z,60.79
2022-09-16T10:08:41.728Z,60.79
2022-09-16T10:08:51.830Z,60.79
2022-09-16T10:09:01.931Z,60.69
2022-09-16T10:09:12.032Z,60.69
2022-09-16T10:09:22.138Z,60.89
2022-09-16T10:09:32.251Z,61.00
2022-09-16T10:09:42.341Z,61.20
2022-09-16T10:09:52.484Z,61.30
2022-09-16T10:10:02.585Z,61.20
2022-09-16T10:10:12.690Z,61.00
2022-09-16T10:10:22.752Z,60.79
2022-09-16T10:10:32.854Z,60.59
2022-09-16T10:10:42.920Z,60.49
2022-09-16T10:10:52.952Z,60.59
2022-09-16T10:11:03.082Z,60.69
2022-09-16T10:11:13.171Z,60.69
2022-09-16T10:11:23.262Z,60.79
2022-09-16T10:11:33.395Z,61.00
2022-09-16T10:11:43.490Z,61.00
2022-09-16T10:11:53.580Z,61.00
2022-09-16T10:12:03.663Z,61.00
2022-09-16T10:12:13.742Z,60.89
2022-09-16T10:12:23.814Z,60.89
2022-09-16T10:12:33.938Z,60.77
2022-09-16T10:12:44.027Z,60.69
2022-09-16T10:12:54.129Z,60.49
2022-09-16T10:13:04.210Z,60.28
2022-09-16T10:13:14.330Z,60.28
2022-09-16T10:13:24.400Z,60.19
2022-09-16T10:13:34.501Z,60.28
2022-09-16T10:13:44.610Z,60.28
2022-09-16T10:13:54.741Z,60.28
2022-09-16T10:14:04.819Z,60.39
2022-09-16T10:14:14.945Z,60.39
2022-09-16T10:14:24.918Z,60.49
2022-09-16T10:14:35.000Z,60.49
2022-09-16T10:14:45.081Z,60.49
2022-09-16T10:14:55.170Z,60.59
2022-09-16T10:15:05.246Z,60.59
2022-09-16T10:15:15.330Z,60.57
2022-09-16T10:15:25.433Z,60.66
2022-09-16T10:15:35.539Z,60.59
2022-09-16T10:15:45.627Z,60.59
2022-09-16T10:15:55.971Z,60.66
2022-09-16T10:16:05.765Z,60.57
2022-09-16T10:16:15.887Z,60.46
2022-09-16T10:16:25.993Z,60.46
2022-09-16T10:16:35.982Z,60.36
2022-09-16T10:16:45.995Z,60.46
2022-09-16T10:16:55.941Z,60.46
2022-09-16T10:17:06.038Z,60.46
2022-09-16T10:17:16.189Z,60.36
2022-09-16T10:17:26.270Z,60.06
2022-09-16T10:17:38.937Z,59.75
2022-09-16T10:17:46.460Z,59.65
2022-09-16T10:17:56.621Z,59.65
2022-09-16T10:18:06.549Z,59.65
2022-09-16T10:18:16.640Z,59.55
2022-09-16T10:18:26.753Z,59.45
2022-09-16T10:18:36.852Z,59.25
2022-09-16T10:18:47.038Z,59.14
2022-09-16T10:18:56.960Z,59.14
2022-09-16T10:19:07.089Z,59.14
2022-09-16T10:19:17.199Z,59.14
2022-09-16T10:19:27.299Z,59.14
2022-09-16T10:19:37.423Z,59.25
2022-09-16T10:19:47.517Z,59.25
2022-09-16T10:19:57.619Z,59.25
2022-09-16T10:20:07.718Z,59.14
2022-09-16T10:20:17.808Z,58.94
2022-09-16T10:20:27.899Z,58.74
2022-09-16T10:20:38.013Z,58.74
2022-09-16T10:20:48.099Z,58.84
2022-09-16T10:20:58.201Z,58.94
2022-09-16T10:21:08.329Z,58.64
2022-09-16T10:21:18.460Z,58.64
2022-09-16T10:21:28.567Z,58.74
2022-09-16T10:21:38.551Z,58.84
2022-09-16T10:21:48.664Z,58.84
2022-09-16T10:21:58.768Z,58.64
2022-09-16T10:22:08.782Z,58.44
2022-09-16T10:22:18.870Z,58.44
2022-09-16T10:22:28.988Z,58.54
2022-09-16T10:22:39.069Z,58.31
2022-09-16T10:22:49.180Z,58.11
2022-09-16T10:22:59.318Z,57.90
2022-09-16T10:23:09.392Z,57.62
2022-09-16T10:23:19.524Z,57.53
2022-09-16T10:23:30.485Z,57.53
2022-09-16T10:23:39.696Z,57.62
2022-09-16T10:23:49.778Z,57.62
2022-09-16T10:23:59.819Z,57.73
2022-09-16T10:24:09.900Z,57.83
2022-09-16T10:24:20.029Z,57.73
2022-09-16T10:24:30.023Z,57.70
2022-09-16T10:24:40.110Z,57.80
2022-09-16T10:24:50.258Z,57.90
2022-09-16T10:25:00.380Z,57.80
2022-09-16T10:25:10.480Z,57.70
2022-09-16T10:25:20.623Z,57.60
2022-09-16T10:25:30.560Z,57.50
2022-09-16T10:25:40.649Z,57.50
2022-09-16T10:25:50.761Z,57.50
2022-09-16T10:26:00.862Z,57.60
2022-09-16T10:26:10.959Z,57.70
2022-09-16T10:26:21.049Z,57.70
2022-09-16T10:26:31.165Z,57.70
2022-09-16T10:26:41.239Z,57.80
2022-09-16T10:26:51.370Z,57.90
2022-09-16T10:27:01.460Z,58.00
2022-09-16T10:27:11.570Z,58.00
2022-09-16T10:27:21.696Z,58.00
2022-09-16T10:27:31.789Z,58.11
2022-09-16T10:27:41.859Z,58.11
2022-09-16T10:27:51.979Z,58.00
2022-09-16T10:28:02.073Z,58.00
2022-09-16T10:28:12.158Z,58.00
2022-09-16T10:28:22.270Z,58.07
2022-09-16T10:28:32.352Z,58.11
2022-09-16T10:28:42.468Z,58.07
2022-09-16T10:28:52.558Z,58.11
2022-09-16T10:29:02.659Z,57.98
2022-09-16T10:29:12.789Z,57.98
2022-09-16T10:29:22.878Z,57.98
2022-09-16T10:29:32.904Z,57.98
2022-09-16T10:29:42.998Z,57.98
2022-09-16T10:29:53.030Z,57.87
2022-09-16T10:30:03.745Z,57.67
2022-09-16T10:30:13.162Z,57.47
2022-09-16T10:30:33.312Z,57.07
2022-09-16T10:30:43.422Z,56.96
2022-09-16T10:30:53.509Z,57.07
2022-09-16T10:31:03.627Z,57.07
2022-09-16T10:31:13.604Z,57.17
2022-09-16T10:31:23.608Z,57.27
2022-09-16T10:31:34.625Z,57.17
2022-09-16T10:31:43.651Z,56.76
2022-09-16T10:31:53.636Z,56.56
2022-09-16T10:32:03.760Z,56.56
2022-09-16T10:32:13.709Z,56.66
2022-09-16T10:32:23.808Z,56.66
2022-09-16T10:32:33.911Z,56.66
2022-09-16T10:32:43.998Z,56.66
2022-09-16T10:32:54.090Z,56.76
2022-09-16T10:33:04.171Z,56.66
2022-09-16T10:33:14.239Z,56.56
2022-09-16T10:33:24.320Z,56.56
2022-09-16T10:33:34.377Z,56.46
2022-09-16T10:33:44.486Z,56.46
2022-09-16T10:33:54.528Z,56.36
2022-09-16T10:34:04.599Z,56.36
2022-09-16T10:34:14.708Z,56.26
2022-09-16T10:34:24.797Z,56.15
2022-09-16T10:34:34.865Z,56.05
2022-09-16T10:34:44.919Z,56.05
2022-09-16T10:34:54.987Z,56.05
2022-09-16T10:35:05.058Z,56.15
2022-09-16T10:35:15.181Z,56.15
2022-09-16T10:35:25.253Z,56.26
2022-09-16T10:35:35.350Z,56.26
2022-09-16T10:35:45.439Z,56.26
2022-09-16T10:35:55.489Z,56.15
2022-09-16T10:36:05.628Z,56.05
2022-09-16T10:36:15.735Z,56.05
2022-09-16T10:36:25.809Z,56.05
2022-09-16T10:36:35.917Z,56.05
2022-09-16T10:36:46.034Z,56.15
2022-09-16T10:36:56.111Z,56.26
2022-09-16T10:37:06.223Z,56.26
2022-09-16T10:37:16.310Z,56.13
2022-09-16T10:37:26.407Z,56.15
2022-09-16T10:37:36.490Z,56.36
2022-09-16T10:37:46.610Z,56.46
2022-09-16T10:37:56.722Z,56.46
2022-09-16T10:38:06.811Z,56.56
2022-09-16T10:38:16.909Z,56.56
2022-09-16T10:38:27.039Z,56.53
2022-09-16T10:38:37.159Z,56.53
2022-09-16T10:38:47.298Z,56.43
2022-09-16T10:39:02.255Z,56.46
2022-09-16T10:39:08.359Z,56.46
2022-09-16T10:39:18.465Z,56.53
2022-09-16T10:39:28.551Z,56.53
2022-09-16T10:39:38.682Z,56.63
2022-09-16T10:39:48.659Z,56.63
2022-09-16T10:39:58.795Z,56.73
2022-09-16T10:40:08.910Z,56.73
2022-09-16T10:40:18.888Z,56.84
2022-09-16T10:40:29.039Z,56.94
2022-09-16T10:40:39.005Z,56.94
2022-09-16T10:40:49.088Z,56.94
2022-09-16T10:40:59.078Z,56.94
2022-09-16T10:41:09.169Z,56.94
2022-09-16T10:41:19.268Z,57.04
2022-09-16T10:41:29.378Z,56.94
2022-09-16T10:41:39.488Z,57.04
2022-09-16T10:41:49.578Z,57.04
2022-09-16T10:41:59.668Z,57.04
2022-09-16T10:42:09.768Z,56.94
2022-09-16T10:42:19.866Z,56.84
2022-09-16T10:42:29.980Z,56.84
2022-09-16T10:42:40.070Z,56.84
2022-09-16T10:42:50.215Z,56.63
2022-09-16T10:43:00.220Z,56.63
2022-09-16T10:43:10.299Z,56.63
2022-09-16T10:43:20.437Z,56.73
2022-09-16T10:43:30.389Z,56.73
2022-09-16T10:43:40.487Z,56.61
2022-09-16T10:43:50.580Z,56.53
2022-09-16T10:44:00.668Z,56.43
2022-09-16T10:44:13.950Z,56.53
2022-09-16T10:44:21.776Z,56.53
2022-09-16T10:44:31.732Z,56.53
2022-09-16T10:44:41.829Z,56.53
2022-09-16T10:44:51.878Z,56.53
2022-09-16T10:45:01.968Z,56.53
2022-09-16T10:45:12.038Z,56.43
2022-09-16T10:45:22.129Z,56.23
2022-09-16T10:45:32.198Z,56.13
2022-09-16T10:45:42.299Z,55.82
2022-09-16T10:45:52.422Z,55.73
2022-09-16T10:46:02.572Z,55.82
2022-09-16T10:46:12.716Z,56.02
2022-09-16T10:46:22.816Z,56.02
2022-09-16T10:46:32.771Z,56.13
2022-09-16T10:46:42.895Z,56.23
2022-09-16T10:46:52.968Z,56.23
2022-09-16T10:47:03.115Z,56.13
2022-09-16T10:47:13.178Z,56.02
2022-09-16T10:47:23.256Z,55.93
2022-09-16T10:47:33.367Z,55.75
2022-09-16T10:47:53.498Z,55.85
2022-09-16T10:48:07.103Z,55.85
2022-09-16T10:48:14.075Z,55.95
2022-09-16T10:48:24.178Z,55.95
2022-09-16T10:48:34.268Z,56.05
2022-09-16T10:48:44.403Z,55.95
2022-09-16T10:48:54.338Z,55.85
2022-09-16T10:49:04.408Z,55.95
2022-09-16T10:49:14.509Z,56.05
2022-09-16T10:49:24.599Z,56.15
2022-09-16T10:49:34.687Z,56.15
2022-09-16T10:49:44.768Z,56.15
2022-09-16T10:49:54.856Z,56.26
2022-09-16T10:50:04.948Z,56.26
2022-09-16T10:50:15.056Z,56.15
2022-09-16T10:50:25.157Z,56.05
2022-09-16T10:50:35.238Z,56.15
2022-09-16T10:50:45.326Z,56.05
2022-09-16T10:50:55.448Z,56.05
2022-09-16T10:51:05.537Z,56.05
2022-09-16T10:51:15.508Z,56.05
2022-09-16T10:51:25.622Z,55.95
2022-09-16T10:51:35.718Z,55.98
2022-09-16T10:51:45.848Z,56.18
2022-09-16T10:51:55.925Z,56.28
2022-09-16T10:52:05.999Z,56.38
2022-09-16T10:52:16.694Z,56.48
2022-09-16T10:52:26.085Z,56.59
2022-09-16T10:52:36.177Z,56.69